Latest Coastal Weather Observations for Taree Airport

IDN60701

Issued at 3:41 pm EST Monday 25 May 2015 (issued every 10 minutes, with the page automatically refreshed every 10 minutes)

About coastal observations | Map of coastal stations | Coastal observations for NSW | Marine services | Other Formats
Station Details ID: 060141 Name: TAREE AIRPORT AWS Lat: -31.89 Lon: 152.51 Height: 8.0 m
Data from the previous 72 hours. | See also: Recent months at Taree Airport
Date/Time
EST
Temp

°C
Wind Pressure Rain
since 9am
mm
Weather Cloud Vis
km
Sea
Height
m
Swell
Dir
 
Speed
knots
Gust
knots
hPa Trend Height
m
Period
s
Dir
25/03:30pm 18.3 ESE 5 6 1028.6 - 0.0 - - 10 - - - -
25/03:00pm 19.2 CALM 0 2 1028.9 - 0.0 - Mostly clear 10 - - - -
25/02:30pm 18.9 NNE 4 5 1029.0 - 0.0 - - 10 - - - -
25/02:00pm 19.2 NNE 3 5 1029.1 - 0.0 - Partly cloudy 10 - - - -
25/01:30pm 19.8 ENE 1 4 1029.2 - 0.0 - - 10 - - - -
25/01:00pm 19.4 ENE 3 5 1029.3 - 0.0 - - 10 - - - -
25/12:30pm 19.6 CALM 0 2 1029.5 - 0.0 - - 10 - - - -
25/12:00pm 19.9 WNW 2 4 1030.1 - 0.0 - - 10 - - - -
25/11:30am 18.8 WSW 4 5 1030.9 - 0.0 - - 10 - - - -
25/11:00am 17.4 WSW 5 6 1031.5 - 0.0 - - 10 - - - -
25/10:30am 16.3 WSW 6 8 1031.9 - 0.0 - - 10 - - - -
25/09:30am 14.1 WSW 5 6 1032.1 - 0.0 - - 10 - - - -
25/09:00am 13.3 W 5 7 1032.1 - 0.0 - - 10 - - - -
25/08:30am 12.4 W 6 12 1032.1 - 0.0 - - 10 - - - -
25/08:00am 11.2 W 5 7 1032.0 - 0.0 - - 10 - - - -
25/07:30am 10.1 W 7 9 1031.8 - 0.0 - - 10 - - - -
25/07:00am 9.8 W 5 7 1031.7 - 0.0 - - 10 - - - -
25/06:30am 9.5 WNW 5 9 1031.4 - 0.0 - - 10 - - - -
25/06:00am 10.0 WNW 5 9 1031.1 - 0.0 - - 10 - - - -
25/05:30am 10.3 WNW 5 8 1031.1 - 0.0 - - 10 - - - -
25/05:00am 10.6 W 6 8 1031.0 - 0.0 - Partly cloudy 10 - - - -
25/04:30am 10.8 W 6 7 1031.1 - 0.0 - - 10 - - - -
25/04:00am 11.1 WSW 5 7 1031.0 - 0.0 - Partly cloudy 10 - - - -
25/03:30am 11.2 WSW 7 9 1031.0 - 0.0 - Cloudy 10 - - - -
25/03:00am 11.1 WSW 7 11 1031.2 - 0.0 - Cloudy 10 - - - -
25/02:30am 11.0 WSW 5 7 1031.0 - 0.0 - Partly cloudy 10 - - - -
25/02:00am 11.1 WSW 5 7 1031.0 - 0.0 - Partly cloudy 10 - - - -
25/01:30am 11.4 WSW 6 8 1031.3 - 0.0 - - 10 - - - -
25/01:00am 11.6 W 4 5 1031.2 - 0.0 - - 10 - - - -
 
Date/Time
EST
Temp

°C
Wind Pressure Rain
since 9am
mm
Weather Cloud Vis
km
Sea
Height
m
Swell
Dir
 
Speed
knots
Gust
knots
hPa Trend Height
m
Period
s
Dir
24/11:30pm 12.7 WSW 4 5 1031.8 - 0.0 - Cloudy 10 - - - -
24/11:00pm 12.7 WNW 5 6 1031.9 - 0.0 - Cloudy 10 - - - -
24/10:30pm 12.9 SW 6 8 1031.8 - 0.0 - Cloudy 10 - - - -
24/10:00pm 12.9 W 6 8 1031.8 - 0.0 - Partly cloudy 10 - - - -
24/09:30pm 13.6 W 6 8 1032.0 - 0.0 - Cloudy 10 - - - -
24/09:00pm 14.3 WNW 7 8 1031.9 - 0.0 - Cloudy 10 - - - -
24/08:30pm 14.4 WNW 7 9 1031.7 - 0.0 - Cloudy 10 - - - -
24/08:00pm 15.0 W 6 7 1031.4 - 0.0 - Cloudy 10 - - - -
24/07:30pm 14.9 WNW 3 4 1031.2 - 0.0 - Cloudy 10 - - - -
24/07:00pm 14.7 CALM 0 5 1031.2 - 0.0 - Cloudy 10 - - - -
24/06:30pm 15.6 CALM 0 0 1031.0 - 0.0 - Cloudy 10 - - - -
24/06:00pm 15.6 S 4 5 1030.9 - 0.0 - Cloudy 10 - - - -
24/05:30pm 15.5 SE 4 4 1030.8 - 0.0 - Cloudy 10 - - - -
24/05:00pm 16.4 W 2 4 1030.5 - 0.0 - Cloudy 10 - - - -
24/04:30pm 16.7 W 4 5 1030.4 - 0.0 - Cloudy 10 - - - -
24/04:00pm 16.9 WSW 5 5 1030.2 - 0.0 - Cloudy 10 - - - -
24/03:30pm 17.2 SW 5 7 1029.9 - 0.0 - Cloudy 10 - - - -
24/03:00pm 17.4 SW 6 9 1029.8 - 0.0 - Cloudy 10 - - - -
24/02:30pm 17.5 SW 7 10 1029.8 - 0.0 - Cloudy 10 - - - -
24/02:00pm 18.5 SW 9 14 1029.7 - 0.0 - Partly cloudy 10 - - - -
24/01:30pm 18.1 SSW 9 13 1029.7 - 0.0 - Partly cloudy 10 - - - -
24/01:00pm 18.5 WSW 8 11 1029.7 - 0.0 - Partly cloudy 10 - - - -
24/12:30pm 18.6 SW 9 14 1030.1 - 0.0 - Cloudy 10 - - - -
24/12:00pm 17.5 SW 7 9 1030.4 - 0.0 - Cloudy 10 - - - -
24/11:30am 17.3 SSW 10 13 1030.8 - 0.0 - Partly cloudy 10 - - - -
24/11:00am 18.7 WSW 7 10 1031.1 - 0.0 - Partly cloudy 10 - - - -
24/10:30am 17.4 WSW 7 10 1031.1 - 0.0 - - 10 - - - -
24/10:00am 16.5 W 7 11 1031.0 - 0.0 - - 10 - - - -
24/09:30am 15.5 W 8 12 1031.1 - 0.0 - - 10 - - - -
24/09:00am 14.4 W 7 9 1030.8 - 0.4 - Partly cloudy 10 - - - -
24/08:30am 13.7 WNW 7 10 1030.7 - 0.4 - Cloudy 10 - - - -
24/08:00am 13.0 WNW 7 11 1030.5 - 0.4 - Cloudy 10 - - - -
24/07:30am 12.6 W 6 9 1030.2 - 0.4 - Cloudy 10 - - - -
24/07:00am 12.3 W 6 8 1029.8 - 0.4 - Partly cloudy 10 - - - -
24/06:30am 11.9 W 7 9 1029.6 - 0.4 - Partly cloudy 10 - - - -
24/06:00am 12.4 W 6 9 1029.3 - 0.4 - Cloudy 10 - - - -
24/05:30am 12.0 W 7 8 1028.8 - 0.4 - Partly cloudy 10 - - - -
24/05:00am 12.0 W 7 9 1028.4 - 0.4 - - 10 - - - -
24/04:30am 12.0 W 6 9 1028.3 - 0.4 - - 10 - - - -
24/04:00am 12.1 W 7 9 1028.1 - 0.4 - - 10 - - - -
24/03:30am 12.1 W 6 8 1027.9 - 0.4 - - 10 - - - -
24/03:00am 12.1 W 6 8 1028.0 - 0.4 - - 10 - - - -
24/02:30am 12.2 W 6 7 1028.0 - 0.4 - - 10 - - - -
24/02:00am 12.2 W 6 8 1028.2 - 0.4 - - 10 - - - -
24/01:30am 12.2 WNW 5 6 1028.2 - 0.4 - - 10 - - - -
24/01:00am 12.5 W 5 7 1028.2 - 0.4 - - 10 - - - -
24/12:30am 12.8 W 6 7 1028.1 - 0.4 - Partly cloudy 10 - - - -
24/12:00am 12.9 WNW 6 10 1028.1 - 0.4 - - 10 - - - -
 
Date/Time
EST
Temp

°C
Wind Pressure Rain
since 9am
mm
Weather Cloud Vis
km
Sea
Height
m
Swell
Dir
 
Speed
knots
Gust
knots
hPa Trend Height
m
Period
s
Dir
23/11:30pm 13.2 WNW 7 9 1028.2 - 0.4 - - 10 - - - -
23/11:00pm 13.6 W 6 8 1028.2 - 0.4 - - 10 - - - -
23/10:30pm 14.1 WSW 7 9 1028.0 - 0.4 - Partly cloudy 10 - - - -
23/10:00pm 14.2 W 7 9 1028.2 - 0.4 - Partly cloudy 10 - - - -
23/09:30pm 13.6 WNW 5 7 1028.3 - 0.4 - Partly cloudy 10 - - - -
23/09:00pm 14.1 W 7 9 1028.2 - 0.4 - Cloudy 10 - - - -
23/08:30pm 14.4 W 6 7 1028.3 - 0.4 - Partly cloudy 10 - - - -
23/08:00pm 14.5 W 7 10 1028.2 - 0.4 - Partly cloudy 10 - - - -
23/07:30pm 14.5 W 7 8 1028.0 - 0.4 - Partly cloudy 10 - - - -
23/07:00pm 14.4 W 6 8 1027.7 - 0.4 - Partly cloudy 10 - - - -
23/06:30pm 14.5 WSW 6 8 1027.4 - 0.4 - - 10 - - - -
23/06:00pm 15.0 W 5 6 1027.4 - 0.4 - Mostly clear 10 - - - -
23/05:30pm 15.8 WSW 5 6 1027.1 - 0.4 - Partly cloudy 10 - - - -
23/05:00pm 16.4 SW 7 9 1026.9 - 0.4 - Partly cloudy 10 - - - -
23/04:30pm 17.1 SSW 7 9 1026.6 - 0.4 - Partly cloudy 10 - - - -
23/04:00pm 17.6 SW 9 12 1026.6 - 0.4 - Partly cloudy 10 - - - -
23/03:30pm 18.5 SW 8 13 1026.1 - 0.4 - Cloudy 10 - - - -
23/03:00pm 18.4 SW 9 13 1025.9 - 0.2 - Mostly cloudy 10 - - - -
23/02:30pm 17.8 SW 9 13 1026.0 - 0.2 - Partly cloudy 10 - - - -
23/02:00pm 17.1 W 9 15 1026.0 - 0.2 - Partly cloudy 10 - - - -
23/01:30pm 16.8 W 8 12 1026.0 - 0.2 - Partly cloudy 10 - - - -
23/01:00pm 15.5 WSW 9 13 1026.1 - 0.2 - Partly cloudy 8 - - - -
23/12:30pm 16.1 WSW 8 12 1026.2 - 0.2 - Partly cloudy 10 - - - -
23/12:11pm 15.5 WSW 8 13 1026.5 - 0.2 - Partly cloudy 10 - - - -
23/12:00pm 15.1 WSW 9 15 1026.7 - 0.2 Showers Cloudy 4 - - - -
23/11:55am 15.0 SW 11 15 1026.8 - 0.2 - Partly cloudy 5 - - - -
23/11:43am 16.2 WSW 9 12 1026.8 - 0.0 - Partly cloudy 10 - - - -
23/11:30am 15.6 SW 8 12 1027.0 - 0.0 - Partly cloudy 5 - - - -
23/11:25am 15.7 SW 9 11 1027.2 - 0.0 - Partly cloudy 5 - - - -
23/11:00am 16.1 WSW 10 15 1027.2 - 0.0 - Partly cloudy 10 - - - -
23/10:30am 16.3 WSW 9 14 1027.3 - 0.0 - Partly cloudy 10 - - - -
23/10:00am 16.5 WSW 10 15 1027.1 - 0.0 - - 10 - - - -
23/09:30am 15.9 WSW 9 13 1027.0 - 0.0 - Partly cloudy 10 - - - -
23/09:00am 15.2 WSW 7 10 1026.8 - 25.8 - Cloudy 10 - - - -
23/08:30am 14.4 W 7 11 1026.6 - 25.8 - Partly cloudy 10 - - - -
23/08:00am 13.6 W 7 10 1026.2 - 25.8 - Partly cloudy 10 - - - -
23/07:30am 12.7 W 6 8 1025.8 - 25.8 - Partly cloudy 10 - - - -
23/07:00am 12.4 W 6 8 1025.5 - 25.8 - Partly cloudy 10 - - - -
23/06:30am 12.5 W 6 9 1025.1 - 25.8 - Partly cloudy 10 - - - -
23/06:00am 12.3 WNW 6 8 1025.0 - 25.8 Recent precip. Partly cloudy 10 - - - -
23/05:30am 12.6 WSW 5 7 1024.7 - 25.8 - Partly cloudy 10 - - - -
23/05:00am 12.6 WSW 9 11 1024.3 - 25.8 - Partly cloudy 10 - - - -
23/04:30am 12.5 W 6 8 1023.8 - 25.8 - Partly cloudy 10 - - - -
23/04:00am 12.0 W 5 7 1023.8 - 25.8 - Partly cloudy 10 - - - -
23/03:30am 12.1 WNW 6 8 1023.7 - 25.8 - Partly cloudy 10 - - - -
23/03:00am 12.3 W 7 9 1023.7 - 25.6 - Partly cloudy 10 - - - -
23/02:30am 12.5 W 8 13 1023.7 - 25.6 - Partly cloudy 10 - - - -
23/02:00am 12.6 W 8 11 1023.7 - 25.6 - Partly cloudy 10 - - - -
23/01:30am 12.8 WSW 7 9 1024.0 - 25.6 - Partly cloudy 10 - - - -
23/01:00am 13.1 WSW 9 13 1023.7 - 25.6 - Partly cloudy 10 - - - -
23/12:30am 13.0 WSW 11 19 1023.6 - 25.6 - Partly cloudy 6 - - - -
23/12:00am 13.6 WSW 8 11 1023.7 - 25.6 Drizzle Cloudy 10 - - - -
 
Date/Time
EST
Temp

°C
Wind Pressure Rain
since 9am
mm
Weather Cloud Vis
km
Sea
Height
m
Swell
Dir
 
Speed
knots
Gust
knots
hPa Trend Height
m
Period
s
Dir
22/11:30pm 13.6 WSW 8 13 1023.3 - 25.6 - Partly cloudy 10 - - - -
22/11:00pm 13.7 WSW 8 12 1023.1 - 25.6 - Partly cloudy 10 - - - -
22/10:30pm 13.6 WSW 8 10 1022.7 - 25.6 - Partly cloudy 10 - - - -
22/10:00pm 13.5 W 7 10 1022.8 - 25.6 - Partly cloudy 10 - - - -
22/09:30pm 13.8 WSW 10 16 1022.2 - 25.6 - Partly cloudy 10 - - - -
22/09:00pm 14.0 SW 8 13 1022.1 - 25.0 Recent precip. Cloudy 10 - - - -
22/08:30pm 14.5 SW 10 15 1021.8 - 24.8 - Partly cloudy 10 - - - -
22/08:00pm 14.4 WSW 9 12 1021.3 - 24.6 - Partly cloudy 10 - - - -
22/07:30pm 14.1 WSW 7 10 1020.6 - 24.4 - Partly cloudy 10 - - - -
22/07:16pm 14.2 SW 10 15 1020.3 - 24.4 - Partly cloudy 10 - - - -
22/07:00pm 14.3 SW 13 17 1020.2 - 24.4 - Partly cloudy 5 - - - -
22/06:59pm 14.3 SW 13 17 1020.2 - 24.4 - Partly cloudy 5 - - - -
22/06:30pm 14.5 SW 13 22 1019.5 - 23.8 - Partly cloudy 10 - - - -
22/06:00pm 14.8 SSW 17 21 1018.8 - 23.6 Showers Cloudy 10 - - - -
22/05:54pm 14.9 SSW 17 27 1018.7 - 23.6 - Partly cloudy 10 - - - -
22/05:49pm 14.8 SSW 17 27 1018.5 - 23.6 - Partly cloudy 10 - - - -
22/05:37pm 14.6 SSW 17 26 1018.3 - 23.4 - Partly cloudy 5 - - - -
22/05:31pm 14.9 SW 16 26 1018.0 - 23.2 - Partly cloudy 8 - - - -
22/05:30pm 14.8 SW 16 23 1018.1 - 23.2 - Partly cloudy 8 - - - -
22/05:16pm 14.7 SW 12 17 1017.9 - 22.4 - Partly cloudy 9 - - - -
22/05:00pm 14.7 SSW 12 17 1017.3 - 21.4 - Partly cloudy 3 - - - -
22/04:58pm 14.7 SSW 12 20 1017.5 - 21.2 - Partly cloudy 3 - - - -
22/04:55pm 14.7 SSW 14 21 1017.4 - 20.8 - Partly cloudy 2 - - - -
22/04:32pm 14.7 SW 15 22 1016.8 - 15.6 - Partly cloudy 4 - - - -
22/04:30pm 14.5 SW 13 20 1016.8 - 15.0 - Partly cloudy 4 - - - -
22/04:00pm 14.2 WSW 9 13 1016.1 - 9.8 - Partly cloudy 5 - - - -
22/03:59pm 14.2 WSW 9 13 1016.0 - 9.8 - Partly cloudy 5 - - - -

Other Formats:

Comma delimited format used in spreadsheet applications
http://www.bom.gov.au/fwo/IDN60701/IDN60701.95784.axf

JavaScript Object Notation format (JSON) in row-major order
http://www.bom.gov.au/fwo/IDN60701/IDN60701.95784.json